Time;durP1;ratioP1;P1;durP2;ratioP2;P2;SDS_P1;SDS_P2;PMS_P1;PMS_P2;Temp;Humidity;BMP_temperature;BMP_pressure;BME280_temperature;BME280_humidity;BME280_pressure;Samples;Min_cycle;Max_cycle;Signal;HPM_P1;HPM_P2
2022/07/10 00:00:37;;;;;;;3.88;2.65;;;19.80;99.90;;;;;;5038355;28;20280;-91
2022/07/10 00:03:04;;;;;;;6.18;2.92;;;19.80;99.90;;;;;;5038295;28;20192;-91
2022/07/10 00:05:31;;;;;;;3.65;3.15;;;19.70;99.90;;;;;;5038308;28;20173;-91
2022/07/10 00:07:57;;;;;;;3.17;2.90;;;19.70;99.90;;;;;;5038075;28;20213;-91
2022/07/10 00:10:24;;;;;;;3.20;2.90;;;19.70;99.90;;;;;;5037971;28;20212;-91
2022/07/10 00:12:53;;;;;;;3.15;2.85;;;19.80;99.90;;;;;;5038525;28;20230;-91
2022/07/10 00:15:19;;;;;;;3.28;3.00;;;19.70;99.90;;;;;;5037778;28;20215;-91
2022/07/10 00:17:45;;;;;;;2.97;2.78;;;19.70;99.90;;;;;;5038059;28;20189;-91
2022/07/10 00:20:13;;;;;;;4.00;2.80;;;19.60;99.90;;;;;;5037955;28;20227;-90
2022/07/10 00:22:40;;;;;;;3.55;2.65;;;19.50;99.90;;;;;;5037524;28;20209;-90
2022/07/10 00:25:09;;;;;;;3.78;2.40;;;19.50;99.90;;;;;;5038237;28;20181;-91
2022/07/10 00:27:34;;;;;;;3.85;3.45;;;19.50;99.90;;;;;;5037746;28;20230;-91
2022/07/10 00:30:01;;;;;;;3.20;2.90;;;19.40;99.90;;;;;;5038288;28;20186;-91
2022/07/10 00:32:27;;;;;;;3.30;2.90;;;19.30;99.90;;;;;;5037938;28;20208;-91
2022/07/10 00:34:53;;;;;;;3.30;3.00;;;19.30;99.90;;;;;;5038578;28;20183;-91
2022/07/10 00:37:21;;;;;;;3.58;3.28;;;19.30;99.90;;;;;;5041501;28;20186;-91
2022/07/10 00:39:48;;;;;;;3.00;2.80;;;19.20;99.90;;;;;;5038178;28;20268;-91
2022/07/10 00:42:15;;;;;;;4.30;2.97;;;19.20;99.90;;;;;;5037929;28;20201;-91
2022/07/10 00:44:42;;;;;;;3.40;3.10;;;19.20;99.90;;;;;;5037449;28;20178;-91
2022/07/10 00:47:09;;;;;;;3.17;2.72;;;19.30;99.90;;;;;;5037915;28;20222;-91
2022/07/10 00:49:38;;;;;;;3.33;2.90;;;19.30;99.90;;;;;;5039917;28;20250;-91
2022/07/10 00:52:06;;;;;;;2.85;2.65;;;19.20;99.90;;;;;;5038612;28;20223;-91
2022/07/10 00:54:34;;;;;;;3.17;2.70;;;19.30;99.90;;;;;;5037515;28;20173;-90
2022/07/10 00:57:02;;;;;;;3.85;3.00;;;19.30;99.90;;;;;;5038590;28;20181;-90
2022/07/10 00:59:28;;;;;;;4.88;3.08;;;19.30;99.90;;;;;;5039833;28;20188;-91
2022/07/10 01:01:54;;;;;;;4.05;2.67;;;19.30;99.90;;;;;;5040063;28;20193;-90
2022/07/10 01:04:20;;;;;;;4.57;3.20;;;19.30;99.90;;;;;;5039553;28;20173;-91
2022/07/10 01:06:46;;;;;;;2.88;2.67;;;19.30;99.90;;;;;;5039577;28;20196;-90
2022/07/10 01:09:12;;;;;;;2.85;2.65;;;19.30;99.90;;;;;;5040266;28;20197;-91
2022/07/10 01:11:39;;;;;;;3.60;3.08;;;19.30;99.90;;;;;;5055673;28;20205;-90
2022/07/10 01:14:05;;;;;;;3.58;2.92;;;19.20;99.90;;;;;;5038859;28;20188;-91
2022/07/10 01:16:31;;;;;;;3.15;2.92;;;19.20;99.90;;;;;;5039495;28;20188;-91
2022/07/10 01:18:58;;;;;;;3.08;2.88;;;19.20;99.90;;;;;;5039642;28;20272;-91
2022/07/10 01:21:32;;;;;;;3.15;2.85;;;19.10;99.90;;;;;;5039738;28;20232;-91
2022/07/10 01:23:59;;;;;;;4.70;2.88;;;19.10;99.90;;;;;;5039331;28;20177;-91
2022/07/10 01:27:03;;;;;;;4.82;3.17;;;19.10;99.90;;;;;;5039013;28;20216;-91
2022/07/10 01:29:29;;;;;;;3.58;3.28;;;19.00;99.90;;;;;;5039065;28;20215;-91
2022/07/10 01:31:55;;;;;;;3.70;3.40;;;18.90;99.90;;;;;;5039030;28;20192;-91
2022/07/10 01:34:21;;;;;;;3.35;2.88;;;18.80;99.90;;;;;;5038544;28;20177;-90
2022/07/10 01:36:47;;;;;;;3.45;3.25;;;18.70;99.90;;;;;;5039297;28;20255;-91
2022/07/10 01:39:13;;;;;;;3.85;3.45;;;18.70;99.90;;;;;;5055278;28;20177;-90
2022/07/10 01:41:39;;;;;;;3.92;3.63;;;18.60;99.90;;;;;;5053076;28;20208;-91
2022/07/10 01:44:05;;;;;;;3.72;3.42;;;18.50;99.90;;;;;;5036056;28;20193;-91
2022/07/10 01:46:31;;;;;;;3.97;3.58;;;18.50;99.90;;;;;;5036483;28;20181;-90
2022/07/10 01:48:57;;;;;;;5.40;3.70;;;18.50;99.90;;;;;;5036570;28;20204;-91
2022/07/10 01:51:23;;;;;;;3.60;3.30;;;18.50;99.90;;;;;;5036193;28;20193;-91
2022/07/10 01:53:49;;;;;;;3.58;3.28;;;18.50;99.90;;;;;;5036638;28;20656;-91
2022/07/10 01:56:16;;;;;;;5.25;4.10;;;18.50;99.90;;;;;;5036047;28;20181;-91
2022/07/10 01:58:42;;;;;;;6.07;3.83;;;18.50;99.90;;;;;;5036078;28;20192;-90
2022/07/10 02:01:09;;;;;;;4.60;3.70;;;18.50;99.90;;;;;;5053053;28;20201;-91
2022/07/10 02:06:19;;;;;;;4.35;3.42;;;18.50;99.90;;;;;;5052076;28;20189;-90
2022/07/10 02:08:45;;;;;;;4.28;3.42;;;18.40;99.90;;;;;;5046222;28;20201;-91
2022/07/10 02:11:12;;;;;;;5.57;3.65;;;18.50;99.90;;;;;;5042956;28;20282;-91
2022/07/10 02:13:38;;;;;;;4.35;3.90;;;18.50;99.90;;;;;;5059312;28;20177;-91
2022/07/10 02:16:05;;;;;;;4.88;3.70;;;18.40;99.90;;;;;;5042995;28;20204;-91
2022/07/10 02:18:32;;;;;;;4.20;3.80;;;18.40;99.90;;;;;;5042854;28;20264;-91
2022/07/10 02:20:58;;;;;;;4.60;3.60;;;18.30;99.90;;;;;;5042454;28;20284;-90
2022/07/10 02:23:23;;;;;;;5.18;3.75;;;18.20;99.90;;;;;;5042544;28;20268;-90
2022/07/10 02:25:49;;;;;;;3.85;3.55;;;18.10;99.90;;;;;;5042930;28;20177;-90
2022/07/10 02:28:15;;;;;;;3.95;3.55;;;18.10;99.90;;;;;;5042893;28;20212;-91
2022/07/10 02:30:42;;;;;;;4.90;3.70;;;18.10;99.90;;;;;;5042541;28;20239;-90
2022/07/10 02:33:08;;;;;;;4.38;3.97;;;18.10;99.90;;;;;;5042535;28;20204;-90
2022/07/10 02:35:34;;;;;;;4.30;3.90;;;18.10;99.90;;;;;;5042436;28;20201;-90
2022/07/10 02:38:00;;;;;;;4.03;3.63;;;18.10;99.90;;;;;;5042122;28;20223;-90
2022/07/10 02:40:26;;;;;;;6.32;3.95;;;18.10;99.90;;;;;;5041729;28;20188;-90
2022/07/10 02:42:52;;;;;;;4.68;4.28;;;18.10;99.90;;;;;;5042304;28;20214;-91
2022/07/10 02:45:18;;;;;;;5.68;4.80;;;18.10;99.90;;;;;;5058844;28;20187;-90
2022/07/10 02:47:44;;;;;;;4.40;4.05;;;17.90;99.90;;;;;;5042414;28;20280;-91
2022/07/10 02:50:09;;;;;;;5.35;4.30;;;17.80;99.90;;;;;;5042523;28;20174;-91
2022/07/10 02:52:35;;;;;;;6.07;5.05;;;17.70;99.90;;;;;;5042403;28;20203;-90
2022/07/10 02:55:01;;;;;;;4.43;3.95;;;17.70;99.90;;;;;;5042196;28;20269;-91
2022/07/10 02:57:27;;;;;;;5.32;4.82;;;17.80;99.90;;;;;;5042347;28;20202;-90
2022/07/10 02:59:53;;;;;;;6.33;4.87;;;17.70;99.90;;;;;;5042258;28;20178;-90
2022/07/10 03:02:19;;;;;;;5.60;5.17;;;17.60;99.90;;;;;;5041908;28;20200;-90
2022/07/10 03:04:45;;;;;;;6.60;5.60;;;17.50;99.90;;;;;;5041975;28;20219;-90
2022/07/10 03:07:18;;;;;;;7.70;5.90;;;17.50;99.90;;;;;;5031220;28;20245;-91
2022/07/10 03:09:44;;;;;;;5.37;4.87;;;17.50;99.90;;;;;;5053625;28;20204;-90
2022/07/10 03:12:10;;;;;;;6.60;5.73;;;17.40;99.90;;;;;;5040372;28;20204;-91
2022/07/10 03:14:36;;;;;;;7.97;6.40;;;17.40;99.90;;;;;;5038841;28;20255;-91
2022/07/10 03:17:02;;;;;;;9.97;7.57;;;17.40;99.90;;;;;;5039255;28;20180;-91
2022/07/10 03:19:28;;;;;;;8.20;7.30;;;17.30;99.90;;;;;;5034853;28;20273;-90
2022/07/10 03:21:54;;;;;;;8.33;7.53;;;17.20;99.90;;;;;;5052094;28;20296;-90
2022/07/10 03:24:20;;;;;;;9.10;8.30;;;17.30;99.90;;;;;;5055389;28;20185;-90
2022/07/10 03:26:46;;;;;;;8.57;7.73;;;17.20;99.90;;;;;;5039370;28;20180;-90
2022/07/10 03:29:11;;;;;;;8.63;7.13;;;17.30;99.90;;;;;;5040075;28;20284;-90
2022/07/10 03:31:37;;;;;;;8.87;8.13;;;17.30;99.90;;;;;;5040578;28;20201;-90
2022/07/10 03:34:03;;;;;;;9.20;8.30;;;17.40;99.90;;;;;;5038383;28;20180;-90
2022/07/10 03:36:29;;;;;;;8.37;7.57;;;17.40;99.90;;;;;;5047592;28;20184;-90
2022/07/10 03:38:55;;;;;;;8.37;7.40;;;17.30;99.90;;;;;;5055725;28;20177;-90
2022/07/10 03:41:21;;;;;;;8.67;7.37;;;17.40;99.90;;;;;;5054702;28;20206;-90
2022/07/10 03:43:47;;;;;;;8.57;7.67;;;17.40;99.90;;;;;;5055412;28;20192;-90
2022/07/10 03:46:12;;;;;;;8.03;7.33;;;17.40;99.90;;;;;;5038568;28;20200;-91
2022/07/10 03:48:38;;;;;;;8.90;8.10;;;17.30;99.90;;;;;;5038467;28;20217;-90
2022/07/10 03:51:04;;;;;;;8.60;7.80;;;17.30;99.90;;;;;;5038144;28;20206;-90
2022/07/10 03:53:30;;;;;;;8.97;8.10;;;17.30;99.90;;;;;;5038922;28;20173;-91
2022/07/10 03:55:56;;;;;;;9.37;8.47;;;17.30;99.90;;;;;;5038711;28;20181;-90
2022/07/10 03:58:22;;;;;;;10.20;9.20;;;17.30;99.90;;;;;;5038688;28;20185;-90
2022/07/10 04:00:48;;;;;;;9.07;8.17;;;17.30;99.90;;;;;;5038140;28;20203;-91
2022/07/10 04:03:15;;;;;;;11.17;9.13;;;17.20;99.90;;;;;;5040517;28;20188;-90
2022/07/10 04:05:40;;;;;;;11.00;9.27;;;17.30;99.90;;;;;;5040668;28;20176;-90
2022/07/10 04:08:20;;;;;;;9.93;8.93;;;17.30;99.90;;;;;;5040725;28;20220;-90
2022/07/10 04:10:46;;;;;;;12.47;10.03;;;17.30;99.90;;;;;;5057087;28;20197;-90
2022/07/10 04:13:20;;;;;;;10.87;8.80;;;17.20;99.90;;;;;;5040814;28;20284;-90
2022/07/10 04:15:52;;;;;;;11.07;10.07;;;17.20;99.90;;;;;;5040262;28;20188;-90
2022/07/10 04:18:26;;;;;;;23.10;21.20;;;17.20;99.90;;;;;;5041187;28;20180;-90
2022/07/10 04:20:52;;;;;;;10.53;9.43;;;17.20;99.90;;;;;;5040321;28;20193;-90
2022/07/10 04:23:18;;;;;;;9.90;8.97;;;17.20;99.90;;;;;;5057041;28;20192;-90
2022/07/10 04:25:43;;;;;;;10.23;9.33;;;17.10;99.90;;;;;;5056836;28;20227;-90
2022/07/10 04:28:10;;;;;;;11.03;8.80;;;17.10;99.90;;;;;;5039982;28;20200;-90
2022/07/10 04:30:38;;;;;;;9.87;8.90;;;17.20;99.90;;;;;;5056264;28;20658;-90
2022/07/10 04:33:04;;;;;;;9.50;8.60;;;17.20;99.90;;;;;;5056667;28;20181;-90
2022/07/10 04:35:30;;;;;;;9.07;8.13;;;17.20;99.90;;;;;;5040017;28;20264;-90
2022/07/10 04:37:57;;;;;;;10.17;9.17;;;17.10;99.90;;;;;;5039808;28;20191;-90
2022/07/10 04:40:38;;;;;;;10.47;8.33;;;17.10;99.90;;;;;;5055843;28;20169;-90
2022/07/10 04:43:04;;;;;;;9.77;8.87;;;17.10;99.90;;;;;;5039695;28;20181;-90
2022/07/10 04:45:33;;;;;;;8.97;8.17;;;17.00;99.90;;;;;;5039802;28;20221;-89
2022/07/10 04:47:59;;;;;;;9.53;8.50;;;16.90;99.90;;;;;;5039897;28;20213;-90
2022/07/10 04:50:27;;;;;;;10.10;8.87;;;16.90;99.90;;;;;;5056329;28;20244;-90
2022/07/10 04:52:52;;;;;;;9.17;8.27;;;16.80;99.90;;;;;;5056000;28;20188;-89
2022/07/10 04:55:19;;;;;;;8.57;7.77;;;16.70;99.90;;;;;;5038422;28;20178;-89
2022/07/10 04:57:48;;;;;;;10.83;8.57;;;16.70;99.90;;;;;;5039694;28;20191;-89
2022/07/10 05:00:14;;;;;;;8.93;8.03;;;16.80;99.90;;;;;;5039595;28;20184;-90
2022/07/10 05:02:40;;;;;;;10.00;8.37;;;16.80;99.90;;;;;;5039606;28;20200;-90
2022/07/10 05:05:07;;;;;;;9.70;8.73;;;16.70;99.90;;;;;;5056093;28;20177;-89
2022/07/10 05:07:36;;;;;;;8.13;7.23;;;16.60;99.90;;;;;;5055836;28;20222;-90
2022/07/10 05:10:02;;;;;;;9.27;7.70;;;16.60;99.90;;;;;;5038573;28;20181;-90
2022/07/10 05:12:28;;;;;;;9.50;7.63;;;16.60;99.90;;;;;;5053996;28;20242;-90
2022/07/10 05:14:55;;;;;;;10.73;7.77;;;16.60;99.90;;;;;;5039300;28;20216;-90
2022/07/10 05:17:21;;;;;;;8.07;7.27;;;16.60;99.90;;;;;;5039433;28;20174;-90
2022/07/10 05:19:47;;;;;;;9.53;7.43;;;16.60;99.90;;;;;;5039552;28;20193;-90
2022/07/10 05:22:13;;;;;;;7.33;6.67;;;16.60;99.90;;;;;;5037411;28;20200;-89
2022/07/10 05:24:39;;;;;;;7.77;6.57;;;16.50;99.90;;;;;;5052758;28;20259;-90
2022/07/10 05:27:05;;;;;;;7.90;7.27;;;16.50;99.90;;;;;;5037738;28;20177;-89
2022/07/10 05:29:31;;;;;;;8.23;7.53;;;16.50;99.90;;;;;;5055557;28;20201;-89
2022/07/10 05:31:57;;;;;;;8.13;6.47;;;16.50;99.90;;;;;;5039141;28;20287;-90
2022/07/10 05:34:24;;;;;;;6.23;5.57;;;16.70;99.90;;;;;;5039161;28;20179;-90
2022/07/10 05:36:50;;;;;;;7.27;6.50;;;16.70;99.90;;;;;;5073220;28;20177;-89
2022/07/10 05:39:16;;;;;;;6.57;5.87;;;16.60;99.90;;;;;;5038943;28;20182;-90
2022/07/10 05:41:42;;;;;;;6.50;5.83;;;16.70;99.90;;;;;;5039023;28;20205;-90
2022/07/10 05:44:08;;;;;;;5.97;4.70;;;16.90;99.90;;;;;;5037904;28;20660;-89
2022/07/10 05:46:37;;;;;;;7.50;5.20;;;17.00;99.90;;;;;;5054822;28;20186;-90
2022/07/10 05:49:06;;;;;;;5.73;5.20;;;17.00;99.90;;;;;;5038766;28;20231;-90
2022/07/10 05:51:32;;;;;;;6.33;4.20;;;17.10;99.90;;;;;;5053096;28;20292;-90
2022/07/10 05:53:59;;;;;;;5.73;4.83;;;17.10;99.90;;;;;;5051865;28;20269;-90
2022/07/10 05:56:25;;;;;;;6.97;4.33;;;17.10;99.90;;;;;;5054062;28;20256;-91
2022/07/10 05:58:51;;;;;;;6.47;4.77;;;17.20;99.90;;;;;;5038494;28;20264;-90
2022/07/10 06:01:16;;;;;;;5.13;4.40;;;17.10;99.90;;;;;;5055239;28;20204;-90
2022/07/10 06:03:42;;;;;;;4.77;4.00;;;17.10;99.90;;;;;;5055202;28;20188;-90
2022/07/10 06:06:09;;;;;;;4.90;3.97;;;17.00;99.90;;;;;;5038561;28;20629;-90
2022/07/10 06:08:35;;;;;;;5.13;4.03;;;17.20;99.90;;;;;;5038380;28;20201;-90
2022/07/10 06:11:01;;;;;;;5.20;4.20;;;17.20;99.90;;;;;;5038563;28;20254;-90
2022/07/10 06:13:26;;;;;;;5.33;4.23;;;17.30;99.90;;;;;;5038815;28;20245;-90
2022/07/10 06:15:52;;;;;;;4.37;3.80;;;17.30;99.90;;;;;;5045474;28;20208;-90
2022/07/10 06:18:18;;;;;;;6.53;4.20;;;17.30;99.90;;;;;;5055377;28;20215;-89
2022/07/10 06:20:44;;;;;;;5.10;4.07;;;17.20;99.90;;;;;;5045457;28;20209;-90
2022/07/10 06:23:10;;;;;;;4.80;4.10;;;17.10;99.90;;;;;;5051957;28;20222;-90
2022/07/10 06:25:36;;;;;;;6.47;4.80;;;17.10;99.90;;;;;;5051734;28;20490;-91
2022/07/10 06:28:02;;;;;;;5.30;3.30;;;17.10;99.90;;;;;;5051581;28;20269;-90
2022/07/10 06:30:28;;;;;;;7.43;3.80;;;17.00;99.90;;;;;;5042214;28;20230;-90
2022/07/10 06:32:54;;;;;;;5.43;3.43;;;17.10;99.90;;;;;;5038635;28;20173;-90
2022/07/10 06:35:20;;;;;;;4.17;3.73;;;16.90;99.90;;;;;;5037877;28;20181;-90
2022/07/10 06:37:46;;;;;;;4.00;3.60;;;16.90;99.90;;;;;;5038003;28;20622;-90
2022/07/10 06:40:15;;;;;;;3.10;2.80;;;17.10;99.90;;;;;;5038535;28;20173;-90
2022/07/10 06:42:41;;;;;;;4.47;2.93;;;17.30;99.90;;;;;;5037957;28;20197;-90
2022/07/10 06:45:10;;;;;;;4.07;2.87;;;17.50;99.90;;;;;;5038679;28;20173;-90
2022/07/10 06:50:22;;;;;;;7.73;3.37;;;17.50;99.90;;;;;;5054288;28;20205;-90
2022/07/10 06:52:48;;;;;;;5.93;2.63;;;17.70;99.90;;;;;;5036015;28;20184;-91
2022/07/10 06:55:15;;;;;;;3.70;2.65;;;18.00;99.90;;;;;;5040833;28;20177;-90
2022/07/10 06:57:41;;;;;;;4.07;2.50;;;18.20;99.90;;;;;;5041802;28;20181;-90
2022/07/10 07:00:12;;;;;;;3.88;2.53;;;18.20;99.90;;;;;;5044627;28;20169;-90
2022/07/10 07:02:41;;;;;;;4.65;2.35;;;18.00;99.90;;;;;;5058234;28;20212;-90
2022/07/10 07:05:08;;;;;;;3.67;2.20;;;17.90;99.90;;;;;;5041308;28;20268;-90
2022/07/10 07:07:34;;;;;;;3.08;2.28;;;17.70;99.90;;;;;;5027814;28;20190;-90
2022/07/10 07:10:01;;;;;;;2.63;2.10;;;17.70;99.90;;;;;;5038751;28;20174;-90
2022/07/10 07:12:26;;;;;;;6.38;2.60;;;17.70;99.90;;;;;;5045167;28;20203;-90
2022/07/10 07:14:52;;;;;;;4.75;2.42;;;17.60;99.90;;;;;;5040911;28;20189;-90
2022/07/10 07:17:22;;;;;;;3.92;2.03;;;17.50;99.90;;;;;;5043796;28;20255;-90
2022/07/10 07:25:19;;;;;;;4.03;2.10;;;18.00;99.90;;;;;;5051033;28;20223;-90
2022/07/10 07:27:49;;;;;;;4.10;2.10;;;18.10;99.90;;;;;;5038761;28;20180;-91
2022/07/10 07:30:17;;;;;;;4.40;1.90;;;18.50;99.90;;;;;;5051999;28;20170;-90
2022/07/10 07:32:45;;;;;;;6.00;2.00;;;18.70;99.90;;;;;;5040369;28;20197;-90
2022/07/10 07:35:12;;;;;;;5.38;2.20;;;19.00;99.90;;;;;;5054994;28;20173;-90
2022/07/10 07:37:43;;;;;;;4.53;1.80;;;19.30;99.90;;;;;;5038118;28;20272;-91
2022/07/10 07:40:16;;;;;;;7.00;2.35;;;19.40;99.90;;;;;;5038455;28;20173;-91
2022/07/10 07:42:43;;;;;;;3.45;2.13;;;19.20;99.90;;;;;;5038092;28;20209;-90
2022/07/10 07:45:09;;;;;;;3.45;2.10;;;19.10;99.90;;;;;;5038665;28;20177;-90
2022/07/10 07:47:56;;;;;;;3.22;1.85;;;19.00;99.90;;;;;;5038522;28;20739;-91
2022/07/10 07:50:28;;;;;;;5.43;2.08;;;19.00;99.90;;;;;;5046426;28;20204;-92
2022/07/10 07:52:54;;;;;;;3.90;2.15;;;19.00;99.90;;;;;;5046445;28;20176;-91
2022/07/10 07:55:22;;;;;;;3.58;1.83;;;18.90;99.90;;;;;;5047848;28;20180;-91
2022/07/10 07:57:54;;;;;;;3.75;1.70;;;18.60;99.90;;;;;;5067938;28;20181;-91
2022/07/10 08:00:22;;;;;;;3.47;2.00;;;18.80;99.90;;;;;;5046252;28;20181;-91
2022/07/10 08:02:52;;;;;;;3.45;1.90;;;19.00;99.90;;;;;;5063568;28;20181;-91
2022/07/10 08:05:19;;;;;;;5.20;2.30;;;19.20;99.90;;;;;;5044280;28;20184;-90
2022/07/10 08:07:52;;;;;;;4.20;1.63;;;19.50;99.90;;;;;;5038284;28;20238;-89
2022/07/10 08:10:20;;;;;;;4.13;1.80;;;19.70;99.90;;;;;;5059092;28;20239;-89
2022/07/10 08:12:47;;;;;;;5.55;3.00;;;19.80;99.90;;;;;;5058150;28;20174;-90
2022/07/10 08:15:16;;;;;;;2.47;2.00;;;19.60;99.90;;;;;;5052962;28;20181;-91
2022/07/10 08:17:42;;;;;;;3.17;1.83;;;19.40;99.90;;;;;;5069594;28;20181;-82
2022/07/10 08:20:11;;;;;;;3.40;1.70;;;19.40;99.90;;;;;;5045566;28;20227;-83
2022/07/10 08:22:39;;;;;;;3.10;1.95;;;19.50;99.90;;;;;;5062838;28;20201;-82
2022/07/10 08:25:05;;;;;;;2.70;1.73;;;19.70;99.90;;;;;;5090064;28;20162;-82
2022/07/10 08:27:31;;;;;;;5.57;1.90;;;19.90;99.90;;;;;;5044616;28;20268;-91
2022/07/10 08:29:57;;;;;;;4.60;1.83;;;20.20;99.90;;;;;;5052762;28;20204;-91
2022/07/10 08:32:23;;;;;;;2.15;1.88;;;20.40;99.90;;;;;;5077384;28;20201;-91
2022/07/10 08:34:49;;;;;;;3.72;1.90;;;20.40;99.90;;;;;;5042251;28;20218;-91
2022/07/10 08:37:16;;;;;;;4.95;1.75;;;20.60;99.90;;;;;;5056970;28;20204;-91
2022/07/10 08:39:42;;;;;;;2.40;1.77;;;20.60;99.90;;;;;;5059174;28;20714;-91
2022/07/10 08:42:10;;;;;;;5.93;1.88;;;20.40;99.90;;;;;;5055258;28;20339;-91
2022/07/10 08:44:55;;;;;;;2.85;1.73;;;20.60;99.90;;;;;;5056038;28;20185;-91
2022/07/10 08:47:23;;;;;;;4.32;1.90;;;20.90;99.90;;;;;;5062217;28;20170;-91
2022/07/10 08:49:48;;;;;;;3.60;1.83;;;21.00;99.90;;;;;;5041432;28;20201;-91
2022/07/10 08:52:55;;;;;;;4.03;1.75;;;21.30;99.90;;;;;;5041848;28;20196;-91
2022/07/10 08:55:25;;;;;;;5.55;2.03;;;21.20;99.90;;;;;;5007995;28;20193;-91
2022/07/10 08:57:52;;;;;;;2.58;1.80;;;21.00;99.90;;;;;;5046517;28;20166;-91
2022/07/10 09:00:18;;;;;;;2.65;1.90;;;21.10;99.90;;;;;;5057832;28;20210;-91
2022/07/10 09:02:44;;;;;;;2.80;1.65;;;21.10;99.90;;;;;;5040790;28;20177;-91
2022/07/10 09:05:10;;;;;;;2.60;1.85;;;21.20;99.90;;;;;;5040311;28;20181;-91
2022/07/10 09:07:37;;;;;;;4.90;1.98;;;21.50;99.90;;;;;;5042103;28;20178;-91
2022/07/10 09:10:08;;;;;;;2.67;1.88;;;21.60;99.90;;;;;;5040003;28;20213;-91
2022/07/10 09:12:56;;;;;;;4.35;1.98;;;21.50;99.90;;;;;;5040270;28;20209;-91
2022/07/10 09:15:54;;;;;;;2.20;1.90;;;21.60;99.90;;;;;;5039189;28;20262;-91
2022/07/10 09:18:23;;;;;;;4.00;1.70;;;22.00;99.90;;;;;;5043717;23;20232;-43
2022/07/10 09:20:49;;;;;;;2.00;1.50;;;21.60;99.90;;;;;;5012666;28;20236;-43
2022/07/10 09:23:18;;;;;;;2.40;1.80;;;21.60;99.90;;;;;;5013093;28;20305;-43
2022/07/10 09:25:45;;;;;;;3.33;1.65;;;21.70;99.90;;;;;;4992526;28;20207;-43
2022/07/10 09:28:12;;;;;;;3.35;1.60;;;21.70;99.90;;;;;;4991908;28;20265;-43
2022/07/10 09:30:39;;;;;;;3.60;1.80;;;21.50;99.90;;;;;;5009992;28;20183;-43
2022/07/10 09:33:44;;;;;;;3.63;1.63;;;21.50;99.90;;;;;;5025743;23;20256;-91
2022/07/10 09:36:32;;;;;;;3.28;1.95;;;21.70;99.90;;;;;;5030987;28;20200;-90
2022/07/10 09:39:08;;;;;;;3.85;1.80;;;21.70;99.90;;;;;;5015256;28;20179;-91
2022/07/10 09:41:35;;;;;;;2.88;1.60;;;21.90;99.90;;;;;;5016247;28;20273;-91
2022/07/10 09:44:03;;;;;;;4.20;1.70;;;22.20;99.90;;;;;;5029732;28;20202;-91
2022/07/10 09:46:40;;;;;;;3.03;1.90;;;22.20;99.90;;;;;;5029656;28;20210;-91
2022/07/10 09:49:13;;;;;;;3.35;1.73;;;22.00;99.90;;;;;;5044341;28;20198;-91
2022/07/10 09:51:59;;;;;;;1.70;1.58;;;22.10;99.90;;;;;;5029860;28;20178;-91
2022/07/10 09:54:25;;;;;;;3.13;1.90;;;21.90;99.90;;;;;;5029824;28;20182;-90
2022/07/10 09:56:51;;;;;;;3.50;1.88;;;22.10;99.90;;;;;;5013546;28;20178;-91
2022/07/10 09:59:19;;;;;;;2.47;1.80;;;22.40;99.90;;;;;;5028788;28;20182;-91
2022/07/10 10:01:52;;;;;;;4.25;1.80;;;22.60;99.90;;;;;;5029186;28;20181;-92
2022/07/10 10:04:21;;;;;;;2.63;1.52;;;22.90;99.90;;;;;;5029768;28;20305;-91
2022/07/10 10:07:43;;;;;;;1.90;1.50;;;22.70;99.90;;;;;;5013170;28;20185;-91
2022/07/10 10:10:24;;;;;;;3.17;1.83;;;22.30;99.90;;;;;;5002504;28;20186;-91
2022/07/10 10:13:01;;;;;;;2.28;1.80;;;22.00;99.90;;;;;;5020648;28;20285;-91
2022/07/10 10:15:41;;;;;;;3.17;2.15;;;22.40;99.90;;;;;;5036052;28;20587;-91
2022/07/10 10:18:20;;;;;;;1.83;1.70;;;22.60;99.90;;;;;;5029219;28;20189;-90
2022/07/10 10:20:55;;;;;;;2.65;1.70;;;22.90;99.90;;;;;;5028815;28;20337;-91
2022/07/10 10:23:27;;;;;;;2.80;1.55;;;23.20;99.90;;;;;;4996462;28;20285;-90
2022/07/10 10:25:59;;;;;;;2.42;1.60;;;23.20;99.90;;;;;;5011953;28;20202;-90
2022/07/10 10:28:28;;;;;;;3.05;1.60;;;23.30;99.90;;;;;;5028734;28;20326;-90
2022/07/10 10:31:04;;;;;;;3.95;1.67;;;23.40;99.90;;;;;;5036384;28;20175;-90
2022/07/10 10:33:42;;;;;;;3.38;1.70;;;23.20;99.90;;;;;;5016912;28;20210;-90
2022/07/10 10:36:43;;;;;;;3.65;1.92;;;23.00;99.90;;;;;;5018468;28;20190;-90
2022/07/10 10:39:54;;;;;;;3.00;1.30;;;23.00;99.90;;;;;;5018853;28;20186;-90
2022/07/10 10:42:42;;;;;;;1.98;1.30;;;23.30;99.90;;;;;;5015797;28;20194;-90
2022/07/10 10:45:37;;;;;;;2.90;1.55;;;23.20;99.90;;;;;;5032464;28;20183;-90
2022/07/10 10:48:15;;;;;;;3.22;1.63;;;23.20;99.90;;;;;;5008276;28;20210;-90
2022/07/10 10:50:57;;;;;;;2.60;1.63;;;22.90;99.90;;;;;;5033057;28;20220;-91
2022/07/10 10:53:31;;;;;;;3.08;1.80;;;23.00;99.90;;;;;;5016501;28;20194;-91
2022/07/10 10:56:12;;;;;;;2.88;1.70;;;23.10;99.90;;;;;;5016332;28;20170;-91
2022/07/10 10:58:42;;;;;;;2.00;1.50;;;22.70;99.90;;;;;;5017581;28;20181;-91
2022/07/10 11:01:28;;;;;;;3.38;1.83;;;23.00;99.90;;;;;;5027812;28;20658;-90
2022/07/10 11:04:16;;;;;;;2.53;1.90;;;22.90;99.90;;;;;;5017721;28;20179;-90
2022/07/10 11:06:57;;;;;;;2.38;1.80;;;23.20;99.90;;;;;;5018485;28;20214;-91
2022/07/10 11:09:36;;;;;;;3.40;2.10;;;23.40;99.90;;;;;;5002510;28;20202;-90
2022/07/10 11:12:18;;;;;;;3.28;1.65;;;23.20;99.90;;;;;;5016579;28;20249;-90
2022/07/10 11:14:56;;;;;;;3.75;1.70;;;23.20;99.90;;;;;;5033970;28;20207;-91
2022/07/10 11:17:43;;;;;;;4.63;1.85;;;23.30;99.90;;;;;;5034339;28;20210;-90
2022/07/10 11:20:22;;;;;;;2.97;1.80;;;23.60;99.90;;;;;;5011021;28;20194;-90
2022/07/10 11:23:25;;;;;;;59.45;39.00;;;23.80;99.90;;;;;;5017239;28;20289;-90
2022/07/10 11:26:13;;;;;;;4.72;1.90;;;23.60;99.90;;;;;;5017622;28;20273;-90
2022/07/10 11:29:07;;;;;;;3.53;1.65;;;23.70;99.90;;;;;;5017704;28;20202;-91
2022/07/10 11:32:11;;;;;;;2.95;1.60;;;23.60;99.90;;;;;;5016844;28;20179;-90
2022/07/10 11:35:05;;;;;;;2.17;1.40;;;24.00;99.90;;;;;;5024569;28;20221;-91
2022/07/10 11:37:54;;;;;;;3.05;1.60;;;24.00;99.20;;;;;;5022300;28;20194;-90
2022/07/10 11:40:28;;;;;;;3.90;1.63;;;24.10;99.50;;;;;;5010480;28;20191;-90
2022/07/10 11:43:48;;;;;;;1.67;1.50;;;23.80;99.90;;;;;;5031068;28;20194;-90
2022/07/10 11:47:02;;;;;;;4.20;1.67;;;24.20;99.90;;;;;;4996929;28;20235;-90
2022/07/10 11:50:02;;;;;;;;;;;;;;;;;;;;;
2022/07/10 11:52:49;;;;;;;2.13;1.40;;;24.00;99.20;;;;;;5034976;28;20218;-90
2022/07/10 11:59:30;;;;;;;2.90;1.80;;;23.90;99.70;;;;;;5023436;28;20186;-91
2022/07/10 12:03:14;;;;;;;;;;;;;;;;;;;;;
2022/07/10 14:14:42;;;;;;;1.38;0.70;;;25.30;93.20;;;;;;5028148;28;20293;-32
2022/07/10 14:17:08;;;;;;;2.20;0.82;;;25.60;91.50;;;;;;4987412;28;20242;-32
2022/07/10 14:19:34;;;;;;;2.05;0.90;;;25.60;90.40;;;;;;4976590;28;20183;-32
2022/07/10 14:22:00;;;;;;;1.30;0.90;;;25.70;91.00;;;;;;4974218;28;20658;-33
2022/07/10 14:24:26;;;;;;;1.65;0.82;;;25.80;91.60;;;;;;4967270;28;20192;-32
2022/07/10 14:26:53;;;;;;;2.30;0.90;;;26.20;90.80;;;;;;5017000;28;20297;-32
2022/07/10 14:29:20;;;;;;;2.25;1.00;;;26.00;91.10;;;;;;5009213;28;20615;-37
2022/07/10 14:31:48;;;;;;;1.85;0.80;;;25.50;91.40;;;;;;4991314;28;20191;-41
2022/07/10 14:34:24;;;;;;;1.63;0.80;;;25.10;92.00;;;;;;4976716;28;20171;-38
2022/07/10 14:36:53;;;;;;;3.55;0.98;;;25.70;91.60;;;;;;4992597;28;20229;-39
2022/07/10 14:39:20;;;;;;;1.88;1.00;;;25.50;90.10;;;;;;4992936;28;20218;-42
2022/07/10 14:41:51;;;;;;;2.25;0.80;;;25.20;91.50;;;;;;4991682;28;20271;-41
2022/07/10 14:44:22;;;;;;;1.77;0.90;;;25.60;91.30;;;;;;4977473;28;20644;-41
2022/07/10 14:46:53;;;;;;;2.13;1.00;;;25.70;91.60;;;;;;4991069;28;20199;-38
2022/07/10 14:49:22;;;;;;;3.53;1.02;;;26.00;91.30;;;;;;4986128;28;20215;-40
2022/07/10 14:51:54;;;;;;;2.88;1.00;;;26.10;90.80;;;;;;4992404;28;20219;-38
2022/07/10 14:54:23;;;;;;;2.65;1.17;;;25.70;90.20;;;;;;5010065;28;20182;-39
2022/07/10 14:56:49;;;;;;;2.00;0.88;;;25.30;91.00;;;;;;4992162;28;20195;-39
2022/07/10 14:59:24;;;;;;;2.13;1.10;;;25.50;91.00;;;;;;4976601;28;20197;-41
2022/07/10 15:01:51;;;;;;;3.03;1.05;;;25.10;92.40;;;;;;4976496;28;20218;-37
2022/07/10 15:04:18;;;;;;;1.35;0.90;;;25.20;92.00;;;;;;5006865;28;20183;-41
2022/07/10 15:07:06;;;;;;;2.38;1.00;;;24.60;91.50;;;;;;4992204;28;20265;-39
2022/07/10 15:09:32;;;;;;;2.45;1.20;;;24.30;91.90;;;;;;4970860;28;20203;-38
2022/07/10 15:11:58;;;;;;;2.55;1.20;;;24.30;92.00;;;;;;4991902;28;20179;-39
2022/07/10 15:14:25;;;;;;;1.52;0.88;;;24.30;92.70;;;;;;4991518;28;20199;-38
2022/07/10 15:16:51;;;;;;;4.43;1.20;;;24.40;92.30;;;;;;4978961;28;20242;-38
2022/07/10 15:19:18;;;;;;;2.00;0.90;;;24.40;92.00;;;;;;5012191;28;20178;-41
2022/07/10 15:21:44;;;;;;;3.17;0.73;;;24.50;92.10;;;;;;4978990;28;20187;-37
2022/07/10 15:24:10;;;;;;;2.17;0.85;;;24.30;91.70;;;;;;4995098;28;20188;-38
2022/07/10 15:26:36;;;;;;;2.47;0.82;;;24.10;92.50;;;;;;4994891;28;20215;-37
2022/07/10 15:29:03;;;;;;;2.08;0.80;;;23.90;92.30;;;;;;4994792;28;20214;-40